createdAt,value
2018-11-26T00:00:36.165Z,21.67
2018-11-26T00:03:04.538Z,17.75
2018-11-26T00:05:33.826Z,12.55
2018-11-26T00:08:01.924Z,19.52
2018-11-26T00:10:47.884Z,18.12
2018-11-26T00:13:17.182Z,17.70
2018-11-26T00:15:44.957Z,16.90
2018-11-26T00:18:13.487Z,19.35
2018-11-26T00:20:42.749Z,19.42
2018-11-26T00:23:10.566Z,14.13
2018-11-26T00:25:38.641Z,18.42
2018-11-26T00:28:07.069Z,19.45
2018-11-26T00:30:36.685Z,19.37
2018-11-26T00:33:06.170Z,17.83
2018-11-26T00:35:34.138Z,19.12
2018-11-26T00:38:02.225Z,16.48
2018-11-26T00:40:31.706Z,12.68
2018-11-26T00:43:01.151Z,17.85
2018-11-26T00:45:28.684Z,14.38
2018-11-26T00:47:58.187Z,20.10
2018-11-26T00:50:26.354Z,20.00
2018-11-26T00:52:54.969Z,17.75
2018-11-26T00:55:23.209Z,21.42
2018-11-26T00:57:57.116Z,17.98
2018-11-26T01:00:26.609Z,18.50
2018-11-26T01:02:55.905Z,19.30
2018-11-26T01:05:30.179Z,20.15
2018-11-26T01:07:59.847Z,20.98
2018-11-26T01:10:29.382Z,18.98
2018-11-26T01:12:59.182Z,19.17
2018-11-26T01:15:27.597Z,19.35
2018-11-26T01:17:57.026Z,19.37
2018-11-26T01:20:25.112Z,14.77
2018-11-26T01:22:54.462Z,20.60
2018-11-26T01:25:23.823Z,19.48
2018-11-26T01:27:51.918Z,17.92
2018-11-26T01:30:21.511Z,18.33
2018-11-26T01:32:51.308Z,21.27
2018-11-26T01:35:19.210Z,20.67
2018-11-26T01:37:49.068Z,19.92
2018-11-26T01:40:42.128Z,18.15
2018-11-26T01:43:10.783Z,19.02
2018-11-26T01:45:40.565Z,17.42
2018-11-26T01:48:08.351Z,19.67
2018-11-26T01:50:37.795Z,17.23
2018-11-26T01:53:06.266Z,17.85
2018-11-26T01:55:34.139Z,18.65
2018-11-26T01:58:02.526Z,16.85
2018-11-26T02:00:31.047Z,18.10
2018-11-26T02:02:59.010Z,16.60
2018-11-26T02:05:27.085Z,19.50
2018-11-26T02:07:56.379Z,20.35
2018-11-26T02:10:24.440Z,19.73
2018-11-26T02:12:54.026Z,18.75
2018-11-26T02:15:39.109Z,20.98
2018-11-26T02:18:07.483Z,18.80
2018-11-26T02:20:35.602Z,21.35
2018-11-26T02:23:03.577Z,18.15
2018-11-26T02:25:31.417Z,20.30
2018-11-26T02:28:00.865Z,21.08
2018-11-26T02:30:28.685Z,21.55
2018-11-26T02:32:58.098Z,19.83
2018-11-26T02:35:27.789Z,20.55
2018-11-26T02:37:57.692Z,17.75
2018-11-26T02:40:29.550Z,20.45
2018-11-26T02:42:57.638Z,18.98
2018-11-26T02:45:25.621Z,18.12
2018-11-26T02:47:54.331Z,19.60
2018-11-26T02:50:21.887Z,21.83
2018-11-26T02:52:50.486Z,17.48
2018-11-26T02:55:18.404Z,19.27
2018-11-26T02:57:46.249Z,17.67
2018-11-26T03:00:15.139Z,20.25
2018-11-26T03:02:43.489Z,21.35
2018-11-26T03:05:12.695Z,18.02
2018-11-26T03:07:41.285Z,18.75
2018-11-26T03:10:12.339Z,20.80
2018-11-26T03:12:40.035Z,18.33
2018-11-26T03:15:09.056Z,19.15
2018-11-26T03:17:38.627Z,19.20
2018-11-26T03:20:07.234Z,21.98
2018-11-26T03:22:35.368Z,22.20
2018-11-26T03:25:03.221Z,17.58
2018-11-26T03:27:31.835Z,24.25
2018-11-26T03:30:01.421Z,19.23
2018-11-26T03:32:29.608Z,22.23
2018-11-26T03:34:57.623Z,23.30
2018-11-26T03:37:27.231Z,19.52
2018-11-26T03:39:55.248Z,22.08
2018-11-26T03:42:24.635Z,23.58
2018-11-26T03:44:52.511Z,21.48
2018-11-26T03:47:20.644Z,22.00
2018-11-26T03:49:50.320Z,21.83
2018-11-26T03:52:20.400Z,23.75
2018-11-26T03:54:48.324Z,20.30
2018-11-26T03:57:16.729Z,22.45
2018-11-26T03:59:45.884Z,22.83
2018-11-26T04:02:14.034Z,20.02
2018-11-26T04:04:42.109Z,21.30
2018-11-26T04:07:11.517Z,22.40
2018-11-26T04:09:39.530Z,20.70
2018-11-26T04:12:08.325Z,19.83
2018-11-26T04:14:36.116Z,19.33
2018-11-26T04:17:08.678Z,22.37
2018-11-26T04:19:36.791Z,18.35
2018-11-26T04:22:04.817Z,21.25
2018-11-26T04:24:34.051Z,20.55
2018-11-26T04:27:02.135Z,18.90
2018-11-26T04:29:31.730Z,19.33
2018-11-26T04:32:00.195Z,22.85
2018-11-26T04:34:28.257Z,26.77
2018-11-26T04:36:55.837Z,20.73
2018-11-26T04:39:24.946Z,23.02
2018-11-26T04:41:54.443Z,21.17
2018-11-26T04:44:23.732Z,19.65
2018-11-26T04:46:55.488Z,20.65
2018-11-26T04:49:25.143Z,21.25
2018-11-26T04:51:53.088Z,16.12
2018-11-26T04:54:21.612Z,21.85
2018-11-26T04:56:50.299Z,16.87
2018-11-26T04:59:18.931Z,21.00
2018-11-26T05:01:46.973Z,19.20
2018-11-26T05:04:14.503Z,16.55
2018-11-26T05:06:43.429Z,18.37
2018-11-26T05:09:14.247Z,22.33
2018-11-26T05:11:45.582Z,21.12
2018-11-26T05:14:15.011Z,22.42
2018-11-26T05:16:44.435Z,22.02
2018-11-26T05:19:14.038Z,20.62
2018-11-26T05:21:43.370Z,29.87
2018-11-26T05:24:12.956Z,25.55
2018-11-26T05:26:42.509Z,24.85
2018-11-26T05:29:12.160Z,20.50
2018-11-26T05:31:40.103Z,24.20
2018-11-26T05:34:07.695Z,21.95
2018-11-26T05:36:35.777Z,23.48
2018-11-26T05:39:03.947Z,22.95
2018-11-26T05:41:33.617Z,21.33
2018-11-26T05:44:01.614Z,19.23
2018-11-26T05:46:31.039Z,21.52
2018-11-26T05:48:58.927Z,20.17
2018-11-26T05:51:27.377Z,18.25
2018-11-26T05:53:56.797Z,20.90
2018-11-26T05:56:25.873Z,20.55
2018-11-26T05:58:54.444Z,21.40
2018-11-26T06:01:23.823Z,22.87
2018-11-26T06:03:53.061Z,20.75
2018-11-26T06:06:21.131Z,22.25
2018-11-26T06:08:50.531Z,21.37
2018-11-26T06:11:18.531Z,21.40
2018-11-26T06:13:47.946Z,21.02
2018-11-26T06:16:16.156Z,20.23
2018-11-26T06:18:45.738Z,19.80
2018-11-26T06:21:15.155Z,20.10
2018-11-26T06:23:43.349Z,20.23
2018-11-26T06:26:12.895Z,22.00
2018-11-26T06:28:40.860Z,20.80
2018-11-26T06:31:08.845Z,20.08
2018-11-26T06:33:38.477Z,18.92
2018-11-26T06:36:08.047Z,22.80
2018-11-26T06:38:36.473Z,15.85
2018-11-26T06:41:04.339Z,20.20
2018-11-26T06:43:32.672Z,21.60
2018-11-26T06:46:02.094Z,20.88
2018-11-26T06:48:31.760Z,20.20
2018-11-26T06:50:59.732Z,21.40
2018-11-26T06:53:29.406Z,16.87
2018-11-26T06:55:57.388Z,20.48
2018-11-26T06:58:27.140Z,20.00
2018-11-26T07:00:56.610Z,18.60
2018-11-26T07:03:26.003Z,19.00
2018-11-26T07:05:55.830Z,20.27
2018-11-26T07:08:25.982Z,19.25
2018-11-26T07:10:55.600Z,18.37
2018-11-26T07:13:23.547Z,19.62
2018-11-26T07:15:51.396Z,16.92
2018-11-26T07:18:19.388Z,19.55
2018-11-26T07:20:49.013Z,20.12
2018-11-26T07:23:18.435Z,20.08
2018-11-26T07:25:47.768Z,20.42
2018-11-26T07:28:17.345Z,15.35
2018-11-26T07:30:46.844Z,20.10
2018-11-26T07:33:16.428Z,19.73
2018-11-26T07:35:45.906Z,19.33
2018-11-26T07:38:15.709Z,19.85
2018-11-26T07:40:43.735Z,20.52
2018-11-26T07:43:12.473Z,19.40
2018-11-26T07:45:40.756Z,18.12
2018-11-26T07:48:09.082Z,20.33
2018-11-26T07:50:38.227Z,20.30
2018-11-26T07:53:08.728Z,17.30
2018-11-26T07:55:36.927Z,16.80
2018-11-26T07:58:06.289Z,14.73
2018-11-26T08:00:34.256Z,18.00
2018-11-26T08:03:02.403Z,17.80
2018-11-26T08:05:31.458Z,18.85
2018-11-26T08:08:00.947Z,17.70
2018-11-26T08:10:28.488Z,18.23
2018-11-26T08:12:57.879Z,18.65
2018-11-26T08:15:28.415Z,18.80
2018-11-26T08:17:57.015Z,14.87
2018-11-26T08:20:24.846Z,16.42
2018-11-26T08:22:52.678Z,19.10
2018-11-26T08:25:23.149Z,19.55
2018-11-26T08:27:52.981Z,17.40
2018-11-26T08:30:29.286Z,18.65
2018-11-26T08:32:59.312Z,16.80
2018-11-26T08:35:27.502Z,17.83
2018-11-26T08:38:09.534Z,19.10
2018-11-26T08:40:43.115Z,20.67
2018-11-26T08:43:20.512Z,21.77
2018-11-26T08:46:10.007Z,14.87
2018-11-26T08:48:56.008Z,12.50
2018-11-26T08:51:24.553Z,18.62
2018-11-26T08:53:52.635Z,19.05
2018-11-26T08:56:21.090Z,17.55
2018-11-26T08:58:50.574Z,17.83
2018-11-26T09:01:35.814Z,20.37
2018-11-26T09:04:21.719Z,20.08
2018-11-26T09:06:51.129Z,18.58
2018-11-26T09:09:20.694Z,16.65
2018-11-26T09:11:50.335Z,19.98
2018-11-26T09:14:20.247Z,17.92
2018-11-26T09:16:48.438Z,19.02
2018-11-26T09:19:17.809Z,16.42
2018-11-26T09:21:45.808Z,15.77
2018-11-26T09:24:14.504Z,19.50
2018-11-26T09:26:42.025Z,14.95
2018-11-26T09:29:10.021Z,18.02
2018-11-26T09:31:37.844Z,16.90
2018-11-26T09:34:07.831Z,20.70
2018-11-26T09:36:37.211Z,16.73
2018-11-26T09:39:08.189Z,17.90
2018-11-26T09:41:35.746Z,16.73
2018-11-26T09:44:05.121Z,20.95
2018-11-26T09:46:33.124Z,18.45
2018-11-26T09:49:02.486Z,18.40
2018-11-26T09:51:30.769Z,17.55
2018-11-26T09:54:00.433Z,19.33
2018-11-26T09:56:28.524Z,11.68
2018-11-26T09:58:56.383Z,19.58
2018-11-26T10:01:24.279Z,16.67
2018-11-26T10:03:53.460Z,19.17
2018-11-26T10:06:22.854Z,15.75
2018-11-26T10:08:50.846Z,16.55
2018-11-26T10:11:18.878Z,19.25
2018-11-26T10:13:46.898Z,19.75
2018-11-26T10:16:16.474Z,19.95
2018-11-26T10:18:46.133Z,17.65
2018-11-26T10:21:14.293Z,19.33
2018-11-26T10:23:42.281Z,13.62
2018-11-26T10:26:10.135Z,20.27
2018-11-26T10:28:38.139Z,14.20
2018-11-26T10:31:05.980Z,15.02
2018-11-26T10:33:33.831Z,17.67
2018-11-26T10:36:03.416Z,12.65
2018-11-26T10:38:31.250Z,17.98
2018-11-26T10:40:59.283Z,15.52
2018-11-26T10:43:26.833Z,18.87
2018-11-26T10:45:55.902Z,15.77
2018-11-26T10:48:23.950Z,16.95
2018-11-26T10:50:53.081Z,16.80
2018-11-26T10:53:21.077Z,16.73
2018-11-26T10:55:48.887Z,10.20
2018-11-26T10:58:17.104Z,14.63
2018-11-26T11:01:03.843Z,18.30
2018-11-26T11:03:33.180Z,18.35
2018-11-26T11:06:01.019Z,17.73
2018-11-26T11:08:30.533Z,18.58
2018-11-26T11:10:58.456Z,18.55
2018-11-26T11:13:27.570Z,17.55
2018-11-26T11:15:55.363Z,17.58
2018-11-26T11:18:23.423Z,18.12
2018-11-26T11:20:50.958Z,16.45
2018-11-26T11:23:22.015Z,17.92
2018-11-26T11:25:51.548Z,19.48
2018-11-26T11:28:19.300Z,19.05
2018-11-26T11:30:47.360Z,13.98
2018-11-26T11:35:43.823Z,17.35
2018-11-26T11:38:11.850Z,17.87
2018-11-26T11:40:39.630Z,17.62
2018-11-26T11:43:07.604Z,17.23
2018-11-26T11:45:37.247Z,16.42
2018-11-26T11:48:06.881Z,13.13
2018-11-26T11:50:34.629Z,17.40
2018-11-26T11:53:02.607Z,18.92
2018-11-26T11:55:32.133Z,17.60
2018-11-26T11:58:01.689Z,16.20
2018-11-26T12:00:41.014Z,17.15
2018-11-26T12:03:17.520Z,19.05
2018-11-26T12:05:46.044Z,19.92
2018-11-26T12:08:15.731Z,19.95
2018-11-26T12:10:43.728Z,16.20
2018-11-26T12:13:13.972Z,14.93
2018-11-26T12:15:51.438Z,20.27
2018-11-26T12:18:20.980Z,21.27
2018-11-26T12:20:49.617Z,19.58
2018-11-26T12:23:19.728Z,21.25
2018-11-26T12:25:47.770Z,19.37
2018-11-26T12:28:16.391Z,20.52
2018-11-26T12:30:45.632Z,19.05
2018-11-26T12:33:13.755Z,21.62
2018-11-26T12:35:41.770Z,17.25
2018-11-26T12:38:09.844Z,19.90
2018-11-26T12:40:37.870Z,20.17
2018-11-26T12:43:06.206Z,21.25
2018-11-26T12:45:36.523Z,20.55
2018-11-26T12:48:05.174Z,21.55
2018-11-26T12:50:34.908Z,20.17
2018-11-26T12:53:04.445Z,16.98
2018-11-26T12:55:32.465Z,22.55
2018-11-26T12:58:01.569Z,21.35
2018-11-26T13:00:31.145Z,19.33
2018-11-26T13:03:03.481Z,22.08
2018-11-26T13:05:33.190Z,21.85
2018-11-26T13:08:01.825Z,22.10
2018-11-26T13:10:31.558Z,19.55
2018-11-26T13:13:01.777Z,19.35
2018-11-26T13:15:30.281Z,20.67
2018-11-26T13:17:59.583Z,20.67
2018-11-26T13:20:28.355Z,22.50
2018-11-26T13:22:57.061Z,17.98
2018-11-26T13:25:25.748Z,21.00
2018-11-26T13:27:54.865Z,15.70
2018-11-26T13:30:27.954Z,21.83
2018-11-26T13:32:56.660Z,22.08
2018-11-26T13:35:25.181Z,22.90
2018-11-26T13:37:53.247Z,20.17
2018-11-26T13:40:23.894Z,23.17
2018-11-26T13:42:54.213Z,22.13
2018-11-26T13:45:29.834Z,22.73
2018-11-26T13:47:57.813Z,22.08
2018-11-26T13:50:31.226Z,21.52
2018-11-26T13:53:00.955Z,23.42
2018-11-26T13:55:30.232Z,23.55
2018-11-26T13:57:58.820Z,22.67
2018-11-26T14:00:25.995Z,25.73
2018-11-26T14:02:55.693Z,21.02
2018-11-26T14:05:23.868Z,24.48
2018-11-26T14:07:53.812Z,26.27
2018-11-26T14:10:22.947Z,26.15
2018-11-26T14:13:01.942Z,25.48
2018-11-26T14:15:29.974Z,23.25
2018-11-26T14:17:57.939Z,21.87
2018-11-26T14:20:26.271Z,23.83
2018-11-26T14:22:54.309Z,25.12
2018-11-26T14:25:23.604Z,23.77
2018-11-26T14:27:51.968Z,25.33
2018-11-26T14:30:20.729Z,25.12
2018-11-26T14:32:48.807Z,23.35
2018-11-26T14:35:18.457Z,24.58
2018-11-26T14:37:59.180Z,24.05
2018-11-26T14:40:49.367Z,23.95
2018-11-26T14:43:17.958Z,22.90
2018-11-26T14:46:11.371Z,23.33
2018-11-26T14:48:39.663Z,22.90
2018-11-26T14:51:07.701Z,23.42
2018-11-26T14:53:38.052Z,22.45
2018-11-26T14:56:07.640Z,22.05
2018-11-26T14:58:37.328Z,21.00
2018-11-26T15:01:06.879Z,21.75
2018-11-26T15:03:35.178Z,26.70
2018-11-26T15:06:03.149Z,25.23
2018-11-26T15:08:32.947Z,22.98
2018-11-26T15:11:00.967Z,19.70
2018-11-26T15:13:30.467Z,21.62
2018-11-26T15:15:59.840Z,21.92
2018-11-26T15:18:29.484Z,24.42
2018-11-26T15:20:59.668Z,21.95
2018-11-26T15:23:27.439Z,18.58
2018-11-26T15:25:55.528Z,23.70
2018-11-26T15:28:24.143Z,23.42
2018-11-26T15:30:53.770Z,22.65
2018-11-26T15:33:21.505Z,21.95
2018-11-26T15:35:50.139Z,23.45
2018-11-26T15:38:17.892Z,22.67
2018-11-26T15:40:47.671Z,18.70
2018-11-26T15:43:15.691Z,17.02
2018-11-26T15:45:45.343Z,22.30
2018-11-26T15:48:16.157Z,20.05
2018-11-26T15:50:44.192Z,21.98
2018-11-26T15:53:14.258Z,19.45
2018-11-26T15:55:42.378Z,21.37
2018-11-26T15:58:10.625Z,21.40
2018-11-26T16:00:38.128Z,20.12
2018-11-26T16:03:08.305Z,21.40
2018-11-26T16:05:36.457Z,20.95
2018-11-26T16:08:12.532Z,19.80
2018-11-26T16:10:42.092Z,18.67
2018-11-26T16:13:10.920Z,20.10
2018-11-26T16:15:42.707Z,19.73
2018-11-26T16:18:20.491Z,16.65
2018-11-26T16:20:48.923Z,17.73
2018-11-26T16:23:16.660Z,18.10
2018-11-26T16:25:45.367Z,17.45
2018-11-26T16:28:14.437Z,19.12
2018-11-26T16:30:42.522Z,19.12
2018-11-26T16:33:12.393Z,17.08
2018-11-26T16:35:42.124Z,16.92
2018-11-26T16:38:09.832Z,19.12
2018-11-26T16:40:39.393Z,19.17
2018-11-26T16:43:09.032Z,14.15
2018-11-26T16:45:38.675Z,15.90
2018-11-26T16:48:07.972Z,16.15
2018-11-26T16:50:36.664Z,17.92
2018-11-26T16:53:06.272Z,12.93
2018-11-26T16:55:34.247Z,21.65
2018-11-26T16:58:07.836Z,18.20
2018-11-26T17:00:36.178Z,17.90
2018-11-26T17:03:03.902Z,18.05
2018-11-26T17:05:32.691Z,17.98
2018-11-26T17:08:02.398Z,17.80
2018-11-26T17:10:30.472Z,17.75
2018-11-26T17:13:00.239Z,18.27
2018-11-26T17:15:28.309Z,16.43
2018-11-26T17:17:57.822Z,16.47
2018-11-26T17:20:28.025Z,17.42
2018-11-26T17:22:56.006Z,12.32
2018-11-26T17:25:25.541Z,14.52
2018-11-26T17:27:53.622Z,16.65
2018-11-26T17:30:27.565Z,17.85
2018-11-26T17:32:57.389Z,17.17
2018-11-26T17:35:26.919Z,19.33
2018-11-26T17:37:56.543Z,19.60
2018-11-26T17:40:26.210Z,18.90
2018-11-26T17:42:55.602Z,17.67
2018-11-26T17:45:24.408Z,18.85
2018-11-26T17:47:53.139Z,17.08
2018-11-26T17:50:31.048Z,17.35
2018-11-26T17:52:59.639Z,19.23
2018-11-26T17:55:29.221Z,20.92
2018-11-26T17:57:58.922Z,19.77
2018-11-26T18:00:27.955Z,19.62
2018-11-26T18:02:55.953Z,16.40
2018-11-26T18:05:29.173Z,18.08
2018-11-26T18:08:03.243Z,14.57
2018-11-26T18:10:31.268Z,20.12
2018-11-26T18:13:01.468Z,19.02
2018-11-26T18:15:30.194Z,18.45
2018-11-26T18:17:59.888Z,17.65
2018-11-26T18:20:28.042Z,17.17
2018-11-26T18:22:56.069Z,13.43
2018-11-26T18:25:24.503Z,15.50
2018-11-26T18:28:12.301Z,14.20
2018-11-26T18:30:44.102Z,19.70
2018-11-26T18:33:12.650Z,19.65
2018-11-26T18:35:42.665Z,19.40
2018-11-26T18:38:10.691Z,20.00
2018-11-26T18:40:40.442Z,18.90
2018-11-26T18:43:08.882Z,22.02
2018-11-26T18:45:37.096Z,18.35
2018-11-26T18:48:06.986Z,19.10
2018-11-26T18:50:35.103Z,19.97
2018-11-26T18:53:03.115Z,20.73
2018-11-26T18:55:31.745Z,19.92
2018-11-26T18:58:01.308Z,20.67
2018-11-26T19:00:31.681Z,20.90
2018-11-26T19:03:01.470Z,16.12
2018-11-26T19:05:31.020Z,18.80
2018-11-26T19:08:01.239Z,20.10
2018-11-26T19:10:30.059Z,19.23
2018-11-26T19:13:00.351Z,19.75
2018-11-26T19:15:29.589Z,20.73
2018-11-26T19:18:00.476Z,19.65
2018-11-26T19:20:30.175Z,21.70
2018-11-26T19:22:58.248Z,19.30
2018-11-26T19:25:26.254Z,18.08
2018-11-26T19:27:54.264Z,20.35
2018-11-26T19:30:23.268Z,19.08
2018-11-26T19:32:50.068Z,19.73
2018-11-26T19:35:19.349Z,20.05
2018-11-26T19:37:47.325Z,21.33
2018-11-26T19:40:17.526Z,21.12
2018-11-26T19:42:48.184Z,19.83
2018-11-26T19:45:21.816Z,19.70
2018-11-26T19:47:49.826Z,20.12
2018-11-26T19:50:18.401Z,18.35
2018-11-26T19:52:48.457Z,20.33
2018-11-26T19:55:25.705Z,20.20
2018-11-26T19:57:55.724Z,21.15
2018-11-26T20:00:24.489Z,22.15
2018-11-26T20:02:53.188Z,20.33
2018-11-26T20:05:40.319Z,20.90
2018-11-26T20:08:09.851Z,20.80
2018-11-26T20:10:37.847Z,19.37
2018-11-26T20:13:07.532Z,20.62
2018-11-26T20:15:37.128Z,22.40
2018-11-26T20:18:05.095Z,21.40
2018-11-26T20:20:32.802Z,20.48
2018-11-26T20:23:02.589Z,19.98
2018-11-26T20:25:30.585Z,17.75
2018-11-26T20:27:58.302Z,20.35
2018-11-26T20:30:27.088Z,20.50
2018-11-26T20:32:56.775Z,21.42
2018-11-26T20:35:24.470Z,20.88
2018-11-26T20:37:52.639Z,22.10
2018-11-26T20:40:21.295Z,20.12
2018-11-26T20:42:53.038Z,19.27
2018-11-26T20:45:21.640Z,21.55
2018-11-26T20:47:50.157Z,23.73
2018-11-26T20:50:36.685Z,23.65
2018-11-26T20:53:06.261Z,20.08
2018-11-26T20:55:34.307Z,22.65
2018-11-26T20:58:02.600Z,23.10
2018-11-26T21:00:30.596Z,21.17
2018-11-26T21:03:13.336Z,20.27
2018-11-26T21:05:43.730Z,21.83
2018-11-26T21:08:12.163Z,23.23
2018-11-26T21:10:40.099Z,21.43
2018-11-26T21:13:08.816Z,25.33
2018-11-26T21:15:37.193Z,25.60
2018-11-26T21:18:10.517Z,23.77
2018-11-26T21:20:44.434Z,22.10
2018-11-26T21:23:14.220Z,22.60
2018-11-26T21:25:43.608Z,24.55
2018-11-26T21:28:13.647Z,22.17
2018-11-26T21:30:41.967Z,23.17
2018-11-26T21:33:12.019Z,23.87
2018-11-26T21:35:42.128Z,24.63
2018-11-26T21:38:12.425Z,25.25
2018-11-26T21:40:40.897Z,24.12
2018-11-26T21:43:11.218Z,23.23
2018-11-26T21:45:50.018Z,23.52
2018-11-26T21:48:18.395Z,23.20
2018-11-26T21:50:48.288Z,23.80
2018-11-26T21:53:16.729Z,23.87
2018-11-26T21:55:44.670Z,24.40
2018-11-26T21:58:14.733Z,25.33
2018-11-26T22:00:44.957Z,25.27
2018-11-26T22:03:16.240Z,26.00
2018-11-26T22:05:45.018Z,25.23
2018-11-26T22:08:15.767Z,24.83
2018-11-26T22:10:46.295Z,22.20
2018-11-26T22:13:18.368Z,24.98
2018-11-26T22:15:48.381Z,25.02
2018-11-26T22:18:18.373Z,23.40
2018-11-26T22:20:48.602Z,23.77
2018-11-26T22:23:19.359Z,24.48
2018-11-26T22:25:49.364Z,25.00
2018-11-26T22:28:19.339Z,21.48
2018-11-26T22:30:47.608Z,24.20
2018-11-26T22:33:17.523Z,24.00
2018-11-26T22:35:47.483Z,22.70
2018-11-26T22:38:16.360Z,24.40
2018-11-26T22:40:44.366Z,23.35
2018-11-26T22:43:12.408Z,25.40
2018-11-26T22:45:40.568Z,23.17
2018-11-26T22:48:09.366Z,22.95
2018-11-26T22:50:38.500Z,22.95
2018-11-26T22:53:08.830Z,22.83
2018-11-26T22:55:36.803Z,22.77
2018-11-26T22:58:04.792Z,25.23
2018-11-26T23:00:43.508Z,23.23
2018-11-26T23:03:12.695Z,22.98
2018-11-26T23:05:40.983Z,22.95
2018-11-26T23:08:10.547Z,23.27
2018-11-26T23:10:38.248Z,23.17
2018-11-26T23:13:06.591Z,23.92
2018-11-26T23:15:34.598Z,23.05
2018-11-26T23:18:03.184Z,23.25
2018-11-26T23:20:31.215Z,25.35
2018-11-26T23:23:01.020Z,22.75
2018-11-26T23:25:28.987Z,22.62
2018-11-26T23:27:58.248Z,23.90
2018-11-26T23:30:29.121Z,23.75
2018-11-26T23:33:08.097Z,21.92
2018-11-26T23:36:07.810Z,21.42
2018-11-26T23:38:36.484Z,24.13
2018-11-26T23:41:04.294Z,22.45
2018-11-26T23:43:32.283Z,23.75
2018-11-26T23:46:00.366Z,22.52
2018-11-26T23:48:28.399Z,21.87
2018-11-26T23:50:58.096Z,23.75
2018-11-26T23:53:26.185Z,20.67
2018-11-26T23:55:54.234Z,22.62
2018-11-26T23:58:23.882Z,23.15
